Time;durP1;ratioP1;P1;durP2;ratioP2;P2;SDS_P1;SDS_P2;PMS_P1;PMS_P2;Temp;Humidity;BMP_temperature;BMP_pressure;BME280_temperature;BME280_humidity;BME280_pressure;Samples;Min_cycle;Max_cycle;Signal;HPM_P1;HPM_P2
2023/03/20 00:00:51;;;;;;;0.90;0.90;;;9.40;99.90;;;;;;5051484;28;20040;-75
2023/03/20 00:03:17;;;;;;;0.82;0.82;;;9.30;99.90;;;;;;5050271;28;20576;-75
2023/03/20 00:05:42;;;;;;;0.80;0.80;;;9.40;99.90;;;;;;5052105;28;20040;-75
2023/03/20 00:08:08;;;;;;;0.90;0.90;;;9.30;99.90;;;;;;5033494;28;20449;-75
2023/03/20 00:10:43;;;;;;;0.80;0.80;;;9.30;99.90;;;;;;5049699;28;20253;-75
2023/03/20 00:13:25;;;;;;;0.80;0.80;;;9.30;99.90;;;;;;5048790;28;20569;-75
2023/03/20 00:15:50;;;;;;;0.80;0.80;;;9.30;99.90;;;;;;5051322;28;20147;-75
2023/03/20 00:18:21;;;;;;;0.70;0.70;;;9.30;99.90;;;;;;5047355;28;20044;-75
2023/03/20 00:20:49;;;;;;;0.80;0.80;;;9.30;99.90;;;;;;5049077;28;21994;-75
2023/03/20 00:23:15;;;;;;;0.70;0.70;;;9.30;99.90;;;;;;5052386;28;20256;-75
2023/03/20 00:25:43;;;;;;;0.77;0.77;;;9.30;99.90;;;;;;5045092;28;21070;-75
2023/03/20 00:28:39;;;;;;;0.80;0.80;;;9.30;99.90;;;;;;5051600;28;20143;-75
2023/03/20 00:31:14;;;;;;;0.80;0.80;;;9.30;99.90;;;;;;5047137;28;20044;-75
2023/03/20 00:33:39;;;;;;;0.80;0.80;;;9.20;99.90;;;;;;5050613;28;20047;-75
2023/03/20 00:36:05;;;;;;;0.80;0.80;;;9.20;99.90;;;;;;5027408;28;20040;-75
2023/03/20 00:38:31;;;;;;;0.70;0.70;;;9.20;99.90;;;;;;5052402;28;20109;-75
2023/03/20 00:40:56;;;;;;;0.70;0.70;;;9.20;99.90;;;;;;5047015;28;20437;-75
2023/03/20 00:43:23;;;;;;;0.70;0.70;;;9.20;99.90;;;;;;5040815;28;20557;-75
2023/03/20 00:45:48;;;;;;;0.70;0.70;;;9.20;99.90;;;;;;5050256;28;20461;-75
2023/03/20 00:48:15;;;;;;;0.70;0.70;;;9.20;99.90;;;;;;5045489;28;20720;-75
2023/03/20 00:50:41;;;;;;;0.70;0.70;;;9.20;99.90;;;;;;5052324;28;20758;-75
2023/03/20 00:53:10;;;;;;;0.80;0.80;;;9.20;99.90;;;;;;5045862;28;20048;-75
2023/03/20 00:55:37;;;;;;;0.80;0.80;;;9.20;99.90;;;;;;5028722;28;20127;-75
2023/03/20 00:58:04;;;;;;;0.70;0.70;;;9.20;99.90;;;;;;5050389;28;20049;-75
2023/03/20 01:00:34;;;;;;;0.70;0.70;;;9.10;99.90;;;;;;5048029;28;20104;-75
2023/03/20 01:03:01;;;;;;;0.70;0.70;;;9.10;99.90;;;;;;5052585;28;20489;-75
2023/03/20 01:05:27;;;;;;;0.70;0.70;;;9.10;99.90;;;;;;5045007;28;20037;-75
2023/03/20 01:07:54;;;;;;;0.70;0.70;;;9.10;99.90;;;;;;5039549;28;20585;-75
2023/03/20 01:10:22;;;;;;;0.70;0.70;;;9.00;99.90;;;;;;5039465;28;20148;-75
2023/03/20 01:12:48;;;;;;;0.70;0.70;;;9.10;99.90;;;;;;5047884;28;20079;-75
2023/03/20 01:15:22;;;;;;;0.70;0.70;;;9.00;99.90;;;;;;5051815;28;20453;-75
2023/03/20 01:17:48;;;;;;;0.70;0.70;;;9.00;99.90;;;;;;5048164;28;20048;-75
2023/03/20 01:20:18;;;;;;;0.70;0.70;;;9.00;99.90;;;;;;5048431;28;20040;-75
2023/03/20 01:22:44;;;;;;;0.70;0.70;;;9.00;99.90;;;;;;5050937;28;20113;-75
2023/03/20 01:25:10;;;;;;;0.70;0.70;;;9.00;99.90;;;;;;5046056;28;20044;-75
2023/03/20 01:27:36;;;;;;;0.73;0.73;;;9.00;99.90;;;;;;5051871;28;20036;-75
2023/03/20 01:30:03;;;;;;;0.80;0.80;;;9.00;99.90;;;;;;5054750;28;20050;-75
2023/03/20 01:32:28;;;;;;;0.70;0.70;;;8.90;99.90;;;;;;5032539;28;20525;-75
2023/03/20 01:34:54;;;;;;;0.70;0.70;;;8.90;99.90;;;;;;5051794;28;20055;-74
2023/03/20 01:37:25;;;;;;;0.70;0.70;;;8.80;99.90;;;;;;5047786;28;20044;-75
2023/03/20 01:39:51;;;;;;;0.70;0.70;;;8.90;99.90;;;;;;5032668;28;20052;-75
2023/03/20 01:42:17;;;;;;;0.80;0.80;;;8.80;99.90;;;;;;5042754;28;20051;-75
2023/03/20 01:44:43;;;;;;;0.80;0.80;;;8.90;99.90;;;;;;5052308;28;20047;-75
2023/03/20 01:47:35;;;;;;;0.70;0.70;;;8.90;99.90;;;;;;5047795;28;20040;-76
2023/03/20 01:50:26;;;;;;;0.70;0.70;;;8.90;99.90;;;;;;5048347;28;20147;-75
2023/03/20 01:53:07;;;;;;;0.80;0.80;;;8.90;99.90;;;;;;5052629;28;20050;-75
2023/03/20 01:55:34;;;;;;;0.80;0.80;;;8.90;99.90;;;;;;5054089;28;20047;-75
2023/03/20 01:58:04;;;;;;;0.80;0.80;;;8.80;99.90;;;;;;5047936;28;20762;-75
2023/03/20 02:00:30;;;;;;;0.80;0.80;;;8.80;99.90;;;;;;5044729;28;20444;-75
2023/03/20 02:02:57;;;;;;;0.80;0.80;;;8.80;99.90;;;;;;5030749;28;20048;-75
2023/03/20 02:05:24;;;;;;;0.70;0.70;;;8.70;99.90;;;;;;5047967;28;20075;-75
2023/03/20 02:08:01;;;;;;;0.70;0.70;;;8.70;99.90;;;;;;5044945;28;20753;-75
2023/03/20 02:10:27;;;;;;;0.70;0.70;;;8.70;99.90;;;;;;5047426;28;20051;-75
2023/03/20 02:12:54;;;;;;;0.70;0.70;;;8.70;99.90;;;;;;5030161;28;20102;-75
2023/03/20 02:15:19;;;;;;;0.75;0.75;;;8.70;99.90;;;;;;5049112;28;20119;-75
2023/03/20 02:17:45;;;;;;;0.70;0.70;;;8.70;99.90;;;;;;5046979;28;20044;-75
2023/03/20 02:20:17;;;;;;;0.70;0.70;;;8.70;99.90;;;;;;5054210;28;20125;-75
2023/03/20 02:23:07;;;;;;;0.70;0.70;;;8.70;99.90;;;;;;5046792;28;20393;-75
2023/03/20 02:25:44;;;;;;;0.80;0.80;;;8.70;99.90;;;;;;5053334;28;20040;-75
2023/03/20 02:28:18;;;;;;;0.80;0.80;;;8.60;99.90;;;;;;5047575;28;20040;-75
2023/03/20 02:31:02;;;;;;;0.70;0.70;;;8.60;99.90;;;;;;5046756;28;20119;-75
2023/03/20 02:33:53;;;;;;;0.80;0.80;;;8.60;99.90;;;;;;5044187;28;20126;-75
2023/03/20 02:36:53;;;;;;;0.80;0.80;;;8.60;99.90;;;;;;5044141;28;20059;-75
2023/03/20 02:39:35;;;;;;;0.80;0.80;;;8.60;99.90;;;;;;5044273;28;20413;-75
2023/03/20 02:42:26;;;;;;;0.80;0.80;;;8.60;99.90;;;;;;5051443;28;20931;-75
2023/03/20 02:45:25;;;;;;;0.80;0.80;;;8.60;99.90;;;;;;5050598;28;20811;-76
2023/03/20 02:48:18;;;;;;;0.80;0.80;;;8.60;99.90;;;;;;5024396;28;20496;-75
2023/03/20 02:50:50;;;;;;;0.80;0.80;;;8.60;99.90;;;;;;5047604;28;20075;-75
2023/03/20 02:53:31;;;;;;;0.80;0.80;;;8.60;99.90;;;;;;5048204;28;20051;-75
2023/03/20 02:56:33;;;;;;;0.80;0.80;;;8.60;99.90;;;;;;5051200;28;20109;-75
2023/03/20 02:59:09;;;;;;;0.70;0.70;;;8.60;99.90;;;;;;5032586;28;20456;-75
2023/03/20 03:01:41;;;;;;;0.75;0.75;;;8.60;99.90;;;;;;5049440;28;20058;-75
2023/03/20 03:04:18;;;;;;;0.75;0.75;;;8.60;99.90;;;;;;5054828;28;20102;-75
2023/03/20 03:06:47;;;;;;;0.70;0.70;;;8.60;99.90;;;;;;5051942;28;20064;-75
2023/03/20 03:09:33;;;;;;;0.75;0.75;;;8.60;99.90;;;;;;5047612;28;20052;-75
2023/03/20 03:12:21;;;;;;;0.80;0.80;;;8.60;99.90;;;;;;5052971;28;20044;-75
2023/03/20 03:14:52;;;;;;;0.70;0.70;;;8.60;99.90;;;;;;5047109;28;20036;-75
2023/03/20 03:17:22;;;;;;;0.70;0.70;;;8.60;99.90;;;;;;5052523;28;20063;-75
2023/03/20 03:19:56;;;;;;;0.70;0.70;;;8.60;99.90;;;;;;5052258;28;20039;-75
2023/03/20 03:22:35;;;;;;;0.70;0.70;;;8.60;99.90;;;;;;5051851;28;20367;-75
2023/03/20 03:25:01;;;;;;;0.70;0.70;;;8.60;99.90;;;;;;5053804;28;20187;-75
2023/03/20 03:27:38;;;;;;;0.70;0.70;;;8.60;99.90;;;;;;5052668;28;20759;-75
2023/03/20 03:30:07;;;;;;;0.70;0.70;;;8.60;99.90;;;;;;5055364;28;20420;-75
2023/03/20 03:32:36;;;;;;;0.70;0.70;;;8.60;99.90;;;;;;5052359;28;20040;-75
2023/03/20 03:35:04;;;;;;;0.70;0.70;;;8.60;99.90;;;;;;5035342;28;20493;-75
2023/03/20 03:37:39;;;;;;;0.70;0.70;;;8.60;99.90;;;;;;5022818;28;20037;-75
2023/03/20 03:40:16;;;;;;;0.70;0.70;;;8.60;99.90;;;;;;5032559;28;20048;-75
2023/03/20 03:42:55;;;;;;;0.73;0.73;;;8.60;99.90;;;;;;5052538;28;20059;-75
2023/03/20 03:45:26;;;;;;;0.70;0.70;;;8.60;99.90;;;;;;5048128;28;20040;-75
2023/03/20 03:48:11;;;;;;;0.70;0.70;;;8.50;99.90;;;;;;5051695;28;20048;-75
2023/03/20 03:50:53;;;;;;;0.70;0.70;;;8.60;99.90;;;;;;5048598;28;20039;-75
2023/03/20 03:53:24;;;;;;;0.70;0.70;;;8.50;99.90;;;;;;5048445;28;20044;-75
2023/03/20 03:55:58;;;;;;;0.70;0.70;;;8.60;99.90;;;;;;5055016;28;20431;-75
2023/03/20 03:58:36;;;;;;;0.70;0.70;;;8.50;99.90;;;;;;5049203;28;20052;-75
2023/03/20 04:01:03;;;;;;;0.70;0.70;;;8.50;99.90;;;;;;5019597;28;20116;-75
2023/03/20 04:03:36;;;;;;;0.70;0.70;;;8.50;99.90;;;;;;5047730;28;20120;-75
2023/03/20 04:06:05;;;;;;;0.73;0.73;;;8.50;99.90;;;;;;5033866;28;20511;-75
2023/03/20 04:08:32;;;;;;;0.70;0.70;;;8.50;99.90;;;;;;5048661;28;20052;-75
2023/03/20 04:10:58;;;;;;;0.70;0.70;;;8.50;99.90;;;;;;5055656;28;20405;-75
2023/03/20 04:13:23;;;;;;;0.70;0.70;;;8.50;99.90;;;;;;5072311;28;20039;-75
2023/03/20 04:15:49;;;;;;;0.68;0.68;;;8.50;99.90;;;;;;5066131;28;20056;-75
2023/03/20 04:18:17;;;;;;;0.70;0.70;;;8.50;99.90;;;;;;5058270;28;20048;-75
2023/03/20 04:20:44;;;;;;;0.70;0.70;;;8.50;99.90;;;;;;5064775;28;20067;-75
2023/03/20 04:23:10;;;;;;;0.70;0.70;;;8.50;99.90;;;;;;5056079;28;20045;-75
2023/03/20 04:25:36;;;;;;;0.60;0.60;;;8.50;99.90;;;;;;5074376;28;20059;-75
2023/03/20 04:28:02;;;;;;;0.70;0.70;;;8.50;99.90;;;;;;5051986;28;20044;-75
2023/03/20 04:30:27;;;;;;;0.68;0.68;;;8.40;99.90;;;;;;5051393;28;20071;-75
2023/03/20 04:32:53;;;;;;;0.70;0.70;;;8.40;99.90;;;;;;5069278;28;20505;-75
2023/03/20 04:35:19;;;;;;;0.70;0.70;;;8.40;99.90;;;;;;5070032;28;20040;-75
2023/03/20 04:37:45;;;;;;;0.70;0.70;;;8.30;99.90;;;;;;5066789;28;20041;-75
2023/03/20 04:40:12;;;;;;;0.60;0.60;;;8.30;99.90;;;;;;5038620;28;20799;-75
2023/03/20 04:42:37;;;;;;;0.70;0.70;;;8.30;99.90;;;;;;5055130;28;20518;-74
2023/03/20 04:45:04;;;;;;;0.70;0.70;;;8.30;99.90;;;;;;5071813;28;20079;-75
2023/03/20 04:47:30;;;;;;;0.70;0.70;;;8.30;99.90;;;;;;5070021;28;20039;-75
2023/03/20 04:49:55;;;;;;;0.60;0.60;;;8.30;99.90;;;;;;5067424;28;20067;-75
2023/03/20 04:52:21;;;;;;;0.70;0.70;;;8.30;99.90;;;;;;5056277;28;20040;-75
2023/03/20 04:54:47;;;;;;;0.70;0.70;;;8.30;99.90;;;;;;5068991;28;20047;-75
2023/03/20 04:57:12;;;;;;;0.70;0.70;;;8.30;99.90;;;;;;5048984;28;20450;-75
2023/03/20 04:59:38;;;;;;;0.70;0.70;;;8.30;99.90;;;;;;5064458;28;20049;-75
2023/03/20 05:02:04;;;;;;;0.70;0.70;;;8.30;99.90;;;;;;5068486;28;20051;-75
2023/03/20 05:04:30;;;;;;;0.70;0.70;;;8.30;99.90;;;;;;5070861;28;20174;-75
2023/03/20 05:06:56;;;;;;;0.70;0.70;;;8.30;99.90;;;;;;5070607;28;20040;-75
2023/03/20 05:09:22;;;;;;;0.70;0.70;;;8.30;99.90;;;;;;5072207;28;20056;-75
2023/03/20 05:11:47;;;;;;;0.70;0.70;;;8.30;99.90;;;;;;5069703;28;20044;-74
2023/03/20 05:14:13;;;;;;;0.70;0.70;;;8.30;99.90;;;;;;5066565;28;20048;-75
2023/03/20 05:16:39;;;;;;;0.70;0.70;;;8.20;99.90;;;;;;5068868;28;20614;-75
2023/03/20 05:19:05;;;;;;;0.60;0.60;;;8.30;99.90;;;;;;5066153;28;20040;-74
2023/03/20 05:21:31;;;;;;;0.70;0.70;;;8.20;99.90;;;;;;5065627;28;20039;-75
2023/03/20 05:23:57;;;;;;;0.70;0.70;;;8.20;99.90;;;;;;5036904;28;20056;-75
2023/03/20 05:26:22;;;;;;;0.73;0.73;;;8.20;99.90;;;;;;5072545;28;20538;-75
2023/03/20 05:28:48;;;;;;;0.70;0.70;;;8.20;99.90;;;;;;5067549;28;20576;-75
2023/03/20 05:31:14;;;;;;;0.70;0.70;;;8.20;99.90;;;;;;5064380;28;20048;-75
2023/03/20 05:33:40;;;;;;;0.70;0.70;;;8.10;99.90;;;;;;5066090;28;20405;-74
2023/03/20 05:36:06;;;;;;;0.75;0.75;;;8.10;99.90;;;;;;5073494;28;20050;-75
2023/03/20 05:38:32;;;;;;;0.73;0.73;;;8.10;99.90;;;;;;5072918;28;20039;-75
2023/03/20 05:40:59;;;;;;;0.80;0.80;;;8.10;99.90;;;;;;5066167;28;20059;-75
2023/03/20 05:43:25;;;;;;;0.75;0.75;;;8.10;99.90;;;;;;5069794;28;20055;-75
2023/03/20 05:45:52;;;;;;;0.70;0.70;;;8.10;99.90;;;;;;5072238;28;20048;-74
2023/03/20 05:48:17;;;;;;;0.70;0.70;;;8.10;99.90;;;;;;5074259;28;20131;-75
2023/03/20 05:50:43;;;;;;;0.70;0.70;;;8.10;99.90;;;;;;5069785;28;20044;-75
2023/03/20 05:53:09;;;;;;;0.80;0.80;;;8.10;99.90;;;;;;5053576;28;20096;-75
2023/03/20 05:55:35;;;;;;;0.75;0.75;;;8.10;99.90;;;;;;5051087;28;20162;-75
2023/03/20 05:58:00;;;;;;;0.80;0.80;;;8.10;99.90;;;;;;5070343;28;20036;-75
2023/03/20 06:00:26;;;;;;;0.80;0.80;;;8.10;99.90;;;;;;5070205;28;20075;-75
2023/03/20 06:02:52;;;;;;;0.80;0.80;;;8.10;99.90;;;;;;5052419;28;20051;-75
2023/03/20 06:05:18;;;;;;;0.70;0.70;;;8.20;99.90;;;;;;5072194;28;20040;-75
2023/03/20 06:07:43;;;;;;;0.80;0.80;;;8.20;99.90;;;;;;5074190;28;20789;-75
2023/03/20 06:10:10;;;;;;;0.70;0.70;;;8.20;99.90;;;;;;5052048;28;20527;-75
2023/03/20 06:12:35;;;;;;;0.80;0.80;;;8.20;99.90;;;;;;5068003;28;20053;-76
2023/03/20 06:15:01;;;;;;;0.80;0.80;;;8.20;99.90;;;;;;5065236;28;20940;-75
2023/03/20 06:17:27;;;;;;;0.77;0.77;;;8.20;99.90;;;;;;5058232;28;20106;-75
2023/03/20 06:19:53;;;;;;;0.75;0.75;;;8.20;99.90;;;;;;5056044;28;20067;-75
2023/03/20 06:22:18;;;;;;;0.80;0.80;;;8.30;99.90;;;;;;5054570;28;20046;-75
2023/03/20 06:24:45;;;;;;;0.80;0.80;;;8.30;99.90;;;;;;5058260;28;20055;-75
2023/03/20 06:27:10;;;;;;;0.80;0.80;;;8.20;99.90;;;;;;5056166;28;20067;-74
2023/03/20 06:29:36;;;;;;;0.80;0.80;;;8.30;99.90;;;;;;5055493;28;22071;-75
2023/03/20 06:32:02;;;;;;;0.77;0.77;;;8.30;99.90;;;;;;5053365;28;20079;-74
2023/03/20 06:34:29;;;;;;;0.80;0.80;;;8.30;99.90;;;;;;5056065;28;20093;-75
2023/03/20 06:36:55;;;;;;;0.77;0.77;;;8.30;99.90;;;;;;5054314;28;20044;-76
2023/03/20 06:39:21;;;;;;;0.70;0.70;;;8.40;99.90;;;;;;5052154;28;20098;-75
2023/03/20 06:41:46;;;;;;;0.80;0.80;;;8.40;99.90;;;;;;5036053;28;20048;-74
2023/03/20 06:44:12;;;;;;;0.80;0.80;;;8.40;99.90;;;;;;5054653;28;20040;-75
2023/03/20 06:46:38;;;;;;;0.77;0.77;;;8.40;99.90;;;;;;5054526;28;20506;-75
2023/03/20 06:49:03;;;;;;;0.80;0.80;;;8.40;99.90;;;;;;5040625;28;20051;-76
2023/03/20 06:51:29;;;;;;;0.80;0.80;;;8.50;99.90;;;;;;5025227;28;20056;-75
2023/03/20 06:53:55;;;;;;;0.80;0.80;;;8.50;99.90;;;;;;5051787;28;20122;-74
2023/03/20 06:56:21;;;;;;;0.80;0.80;;;8.60;99.90;;;;;;5041363;28;20305;-75
2023/03/20 06:58:46;;;;;;;0.80;0.80;;;8.60;99.90;;;;;;5040757;28;20191;-75
2023/03/20 07:01:15;;;;;;;0.80;0.80;;;8.70;99.90;;;;;;5059945;28;20417;-75
2023/03/20 07:03:41;;;;;;;0.80;0.80;;;8.70;99.90;;;;;;5055477;28;20060;-74
2023/03/20 07:06:07;;;;;;;0.80;0.80;;;8.80;99.90;;;;;;5060674;28;20059;-74
2023/03/20 07:08:33;;;;;;;0.82;0.82;;;8.80;99.90;;;;;;5060889;28;20123;-76
2023/03/20 07:11:00;;;;;;;0.85;0.85;;;8.70;99.90;;;;;;5059920;28;20412;-75
2023/03/20 07:13:27;;;;;;;0.85;0.85;;;8.80;99.90;;;;;;5059610;28;20036;-75
2023/03/20 07:15:53;;;;;;;0.80;0.80;;;8.80;99.90;;;;;;5051020;28;20066;-75
2023/03/20 07:18:19;;;;;;;0.80;0.80;;;8.80;99.90;;;;;;5072569;28;20040;-74
2023/03/20 07:20:45;;;;;;;0.80;0.80;;;8.70;99.90;;;;;;5061907;28;20114;-75
2023/03/20 07:23:11;;;;;;;0.85;0.85;;;8.80;99.90;;;;;;5072570;28;20101;-75
2023/03/20 07:25:37;;;;;;;0.82;0.82;;;8.80;99.90;;;;;;5054344;28;20525;-73
2023/03/20 07:28:04;;;;;;;0.90;0.90;;;8.90;99.90;;;;;;5064342;28;20106;-75
2023/03/20 07:30:31;;;;;;;0.82;0.82;;;9.00;99.90;;;;;;5065630;28;20051;-74
2023/03/20 07:32:57;;;;;;;0.82;0.82;;;9.00;99.90;;;;;;5068434;28;20036;-75
2023/03/20 07:35:23;;;;;;;0.80;0.80;;;9.10;99.90;;;;;;5055006;28;20074;-75
2023/03/20 07:37:48;;;;;;;0.80;0.80;;;9.00;99.90;;;;;;5070921;28;20783;-75
2023/03/20 07:40:15;;;;;;;0.80;0.80;;;9.00;99.90;;;;;;5053988;28;20047;-75
2023/03/20 07:42:40;;;;;;;0.80;0.80;;;9.00;99.90;;;;;;5069708;28;20107;-75
2023/03/20 07:45:08;;;;;;;0.80;0.80;;;9.00;99.90;;;;;;5077246;28;20683;-75
2023/03/20 07:47:34;;;;;;;0.80;0.80;;;9.00;99.90;;;;;;5075672;28;20753;-75
2023/03/20 07:49:59;;;;;;;0.80;0.80;;;9.00;99.90;;;;;;5058010;28;20047;-75
2023/03/20 07:52:25;;;;;;;0.80;0.80;;;9.00;99.90;;;;;;5077401;28;20040;-75
2023/03/20 07:54:51;;;;;;;0.80;0.80;;;8.90;99.90;;;;;;5045258;28;21585;-75
2023/03/20 07:57:17;;;;;;;0.80;0.80;;;9.00;99.90;;;;;;5062013;28;20127;-76
2023/03/20 07:59:43;;;;;;;0.80;0.80;;;9.00;99.90;;;;;;5071163;28;20040;-75
2023/03/20 08:02:14;;;;;;;0.90;0.90;;;9.00;99.90;;;;;;5075756;28;20075;-75
2023/03/20 08:04:40;;;;;;;0.80;0.80;;;9.00;99.90;;;;;;5078948;28;20123;-75
2023/03/20 08:07:06;;;;;;;0.80;0.80;;;9.10;99.90;;;;;;5078336;28;20043;-75
2023/03/20 08:09:32;;;;;;;0.80;0.80;;;9.20;99.90;;;;;;5076209;28;20042;-74
2023/03/20 08:11:58;;;;;;;0.80;0.80;;;9.30;99.90;;;;;;5077753;28;20128;-75
2023/03/20 08:14:23;;;;;;;0.80;0.80;;;9.30;99.90;;;;;;5075685;28;20067;-75
2023/03/20 08:16:49;;;;;;;0.80;0.80;;;9.40;99.90;;;;;;5079634;28;20051;-75
2023/03/20 08:19:15;;;;;;;0.80;0.80;;;9.30;99.90;;;;;;5057130;28;20585;-75
2023/03/20 08:21:40;;;;;;;0.70;0.70;;;9.40;99.90;;;;;;5056792;28;20425;-75
2023/03/20 08:24:07;;;;;;;0.80;0.80;;;9.40;99.90;;;;;;5078516;28;20040;-75
2023/03/20 08:26:33;;;;;;;0.80;0.80;;;9.50;99.90;;;;;;5078640;28;20052;-75
2023/03/20 08:28:59;;;;;;;0.80;0.80;;;9.50;99.90;;;;;;5061166;28;20062;-74
2023/03/20 08:31:24;;;;;;;0.70;0.70;;;9.60;99.90;;;;;;5076624;28;20051;-75
2023/03/20 08:33:50;;;;;;;0.70;0.70;;;9.70;99.90;;;;;;5058827;28;20126;-75
2023/03/20 08:36:19;;;;;;;0.77;0.77;;;9.60;99.90;;;;;;5054875;28;20063;-75
2023/03/20 08:38:46;;;;;;;0.80;0.80;;;9.70;99.90;;;;;;5074774;28;20099;-74
2023/03/20 08:41:12;;;;;;;0.80;0.80;;;9.80;99.90;;;;;;5067838;28;20047;-75
2023/03/20 08:43:38;;;;;;;0.73;0.73;;;9.90;99.90;;;;;;5073537;28;20068;-75
2023/03/20 08:46:04;;;;;;;0.70;0.70;;;9.90;99.90;;;;;;5075019;28;20615;-75
2023/03/20 08:48:30;;;;;;;0.70;0.70;;;9.90;99.90;;;;;;5072760;28;20071;-75
2023/03/20 08:50:55;;;;;;;0.77;0.77;;;9.90;99.90;;;;;;5070012;28;20135;-75
2023/03/20 08:53:21;;;;;;;0.80;0.80;;;9.90;99.90;;;;;;5073124;28;20787;-75
2023/03/20 08:55:51;;;;;;;0.70;0.70;;;10.20;99.90;;;;;;5072550;28;20131;-75
2023/03/20 08:58:17;;;;;;;0.80;0.80;;;10.20;99.90;;;;;;5075252;28;20613;-75
2023/03/20 09:00:44;;;;;;;0.80;0.80;;;10.30;99.90;;;;;;5068136;28;20059;-75
2023/03/20 09:03:17;;;;;;;0.70;0.70;;;10.40;99.90;;;;;;5054441;28;20062;-75
2023/03/20 09:05:45;;;;;;;0.90;0.90;;;10.40;99.90;;;;;;5044872;28;20059;-75
2023/03/20 09:08:11;;;;;;;0.80;0.80;;;10.50;99.90;;;;;;5047899;28;20048;-75
2023/03/20 09:10:37;;;;;;;0.70;0.70;;;10.60;99.90;;;;;;5050440;28;20044;-75
2023/03/20 09:13:03;;;;;;;0.80;0.80;;;10.80;99.90;;;;;;5053463;28;20204;-75
2023/03/20 09:15:29;;;;;;;0.80;0.80;;;10.70;99.90;;;;;;5077018;28;20070;-76
2023/03/20 09:17:55;;;;;;;0.80;0.80;;;10.90;99.90;;;;;;5071239;28;20048;-75
2023/03/20 09:20:21;;;;;;;0.70;0.70;;;11.00;99.90;;;;;;5071600;28;20044;-75
2023/03/20 09:22:47;;;;;;;0.70;0.70;;;10.90;99.90;;;;;;5074651;28;20509;-75
2023/03/20 09:25:12;;;;;;;0.70;0.70;;;11.00;99.90;;;;;;5072268;28;20032;-76
2023/03/20 09:27:39;;;;;;;0.70;0.70;;;11.10;99.90;;;;;;5058997;28;20440;-75
2023/03/20 09:30:06;;;;;;;0.70;0.70;;;11.30;99.90;;;;;;5052111;28;20122;-75
2023/03/20 09:32:33;;;;;;;0.70;0.70;;;11.50;99.90;;;;;;5070671;28;20040;-75
2023/03/20 09:35:00;;;;;;;0.70;0.70;;;11.50;99.90;;;;;;5073998;28;20505;-75
2023/03/20 09:37:26;;;;;;;0.70;0.70;;;11.50;99.90;;;;;;5053115;28;20045;-77
2023/03/20 09:39:51;;;;;;;0.70;0.70;;;11.40;99.90;;;;;;5068794;28;20040;-76
2023/03/20 09:42:31;;;;;;;0.70;0.70;;;11.50;99.90;;;;;;5069045;28;20545;-76
2023/03/20 09:45:21;;;;;;;0.70;0.70;;;11.80;99.90;;;;;;5053806;28;20040;-75
2023/03/20 09:48:09;;;;;;;0.70;0.70;;;12.10;99.90;;;;;;5069782;28;20048;-75
2023/03/20 09:50:58;;;;;;;0.70;0.70;;;12.10;99.90;;;;;;5073225;28;20044;-75
2023/03/20 09:53:33;;;;;;;0.70;0.70;;;11.80;99.90;;;;;;5036479;28;20071;-75
2023/03/20 09:55:59;;;;;;;0.70;0.70;;;11.70;99.90;;;;;;5055884;28;20052;-75
2023/03/20 09:58:32;;;;;;;0.70;0.70;;;11.90;99.90;;;;;;5065649;28;20093;-75
2023/03/20 10:01:00;;;;;;;;;;;12.00;99.90;;;;;;5051926;28;20055;-76
2023/03/20 10:03:43;;;;;;;0.70;0.70;;;12.30;99.90;;;;;;5070740;28;19935;-75
2023/03/20 10:06:15;;;;;;;0.60;0.60;;;12.40;99.90;;;;;;5071942;28;20382;-75
2023/03/20 10:08:42;;;;;;;0.70;0.70;;;12.40;99.90;;;;;;5070090;28;20397;-75
2023/03/20 10:11:29;;;;;;;0.70;0.70;;;12.20;99.90;;;;;;5070792;28;20073;-76
2023/03/20 10:14:01;;;;;;;0.60;0.60;;;12.10;99.90;;;;;;5068677;28;20044;-74
2023/03/20 10:16:36;;;;;;;0.60;0.60;;;12.10;99.90;;;;;;5073184;28;20039;-75
2023/03/20 10:19:33;;;;;;;0.60;0.60;;;12.30;99.90;;;;;;5070517;28;20127;-75
2023/03/20 10:22:24;;;;;;;0.60;0.60;;;12.80;99.90;;;;;;5065868;28;20056;-75
2023/03/20 10:25:11;;;;;;;0.63;0.63;;;12.80;99.90;;;;;;5028987;28;20113;-75
2023/03/20 10:27:42;;;;;;;0.60;0.60;;;12.90;99.90;;;;;;5072848;28;20089;-76
2023/03/20 10:30:45;;;;;;;0.60;0.60;;;12.70;99.90;;;;;;5055231;28;20073;-75
2023/03/20 10:33:28;;;;;;;0.60;0.60;;;12.70;99.90;;;;;;5068492;28;20048;-76
2023/03/20 10:36:02;;;;;;;0.60;0.60;;;12.80;99.90;;;;;;5055212;28;20040;-75
2023/03/20 10:38:35;;;;;;;0.60;0.60;;;12.80;99.90;;;;;;5072076;28;20105;-73
2023/03/20 10:41:08;;;;;;;0.60;0.60;;;12.60;99.90;;;;;;5072614;28;20103;-76
2023/03/20 10:43:38;;;;;;;0.50;0.50;;;12.70;99.90;;;;;;5069060;28;20417;-77
2023/03/20 10:46:09;;;;;;;0.60;0.60;;;12.60;99.90;;;;;;5055978;28;20177;-75
2023/03/20 10:48:46;;;;;;;0.60;0.60;;;12.40;99.90;;;;;;5052461;28;20142;-76
2023/03/20 10:51:18;;;;;;;0.60;0.60;;;12.10;99.90;;;;;;5050065;28;20114;-76
2023/03/20 10:53:58;;;;;;;0.60;0.60;;;11.80;99.90;;;;;;5071315;28;20051;-76
2023/03/20 10:56:46;;;;;;;0.60;0.60;;;11.60;99.90;;;;;;5068861;28;20101;-74
2023/03/20 10:59:50;;;;;;;0.60;0.60;;;11.60;99.90;;;;;;5071225;28;20052;-75
2023/03/20 11:02:18;;;;;;;0.60;0.60;;;11.60;99.90;;;;;;5071554;28;20356;-76
2023/03/20 11:04:44;;;;;;;0.70;0.70;;;11.60;99.90;;;;;;5054903;28;20127;-74
2023/03/20 11:07:22;;;;;;;0.60;0.60;;;11.60;99.90;;;;;;5069808;28;20044;-75
2023/03/20 11:10:12;;;;;;;0.60;0.60;;;11.60;99.90;;;;;;5070136;28;20059;-75
2023/03/20 11:12:41;;;;;;;0.60;0.60;;;11.60;99.90;;;;;;5069461;28;20076;-76
2023/03/20 11:15:30;;;;;;;0.60;0.60;;;11.50;99.90;;;;;;5074843;28;20060;-76
2023/03/20 11:18:04;;;;;;;0.60;0.60;;;11.30;99.90;;;;;;5070430;28;20101;-76
2023/03/20 11:20:37;;;;;;;0.60;0.60;;;11.30;99.90;;;;;;5075422;28;20093;-76
2023/03/20 11:23:05;;;;;;;0.60;0.60;;;11.20;99.90;;;;;;5075755;28;20039;-76
2023/03/20 11:25:45;;;;;;;0.60;0.60;;;11.20;99.90;;;;;;5077727;28;20048;-76
2023/03/20 11:28:18;;;;;;;0.65;0.65;;;11.10;99.90;;;;;;5072284;28;20045;-76
2023/03/20 11:30:44;;;;;;;0.60;0.60;;;11.00;99.90;;;;;;5076419;28;20044;-75
2023/03/20 11:33:10;;;;;;;0.60;0.60;;;11.10;99.90;;;;;;5069282;28;20036;-76
2023/03/20 11:35:36;;;;;;;0.60;0.60;;;11.10;99.90;;;;;;5054948;28;20136;-75
2023/03/20 11:38:19;;;;;;;0.60;0.60;;;11.20;99.90;;;;;;5073849;28;20059;-75
2023/03/20 11:40:47;;;;;;;0.60;0.60;;;11.20;99.90;;;;;;5069521;28;20182;-76
2023/03/20 11:43:22;;;;;;;0.60;0.60;;;11.20;99.90;;;;;;5044185;28;20701;-76
2023/03/20 11:45:56;;;;;;;0.60;0.60;;;11.20;99.90;;;;;;5076937;28;20036;-76
2023/03/20 11:48:38;;;;;;;0.70;0.70;;;11.10;99.90;;;;;;5077402;28;20262;-76
2023/03/20 11:51:07;;;;;;;0.60;0.60;;;11.10;99.90;;;;;;5052947;28;20102;-76
2023/03/20 11:53:51;;;;;;;0.60;0.60;;;11.00;99.90;;;;;;5038532;28;20105;-76
2023/03/20 11:56:26;;;;;;;0.60;0.60;;;11.00;99.90;;;;;;5053479;28;20048;-75
2023/03/20 11:59:00;;;;;;;0.60;0.60;;;11.10;99.90;;;;;;5057822;28;20048;-75
2023/03/20 12:01:28;;;;;;;0.60;0.60;;;11.10;99.90;;;;;;5073106;28;20048;-74
2023/03/20 12:03:54;;;;;;;0.70;0.70;;;11.00;99.90;;;;;;5060580;28;20055;-76
2023/03/20 12:06:38;;;;;;;0.60;0.60;;;11.10;99.90;;;;;;5056992;28;20749;-75
2023/03/20 12:09:11;;;;;;;0.60;0.60;;;11.10;99.90;;;;;;5040359;28;20044;-75
2023/03/20 12:11:47;;;;;;;0.60;0.60;;;11.20;99.90;;;;;;5072117;28;20087;-76
2023/03/20 12:14:36;;;;;;;0.80;0.80;;;11.20;99.90;;;;;;5078214;28;20044;-75
2023/03/20 12:17:25;;;;;;;0.60;0.60;;;11.00;99.90;;;;;;5077548;28;20122;-75
2023/03/20 12:19:53;;;;;;;0.63;0.63;;;10.90;99.90;;;;;;5069691;28;20976;-76
2023/03/20 12:22:29;;;;;;;0.70;0.70;;;10.80;99.90;;;;;;5073722;28;20039;-75
2023/03/20 12:25:24;;;;;;;0.63;0.63;;;10.80;99.90;;;;;;5071521;28;20109;-75
2023/03/20 12:28:10;;;;;;;0.70;0.70;;;10.90;99.90;;;;;;5049250;28;20056;-76
2023/03/20 12:30:51;;;;;;;0.70;0.70;;;10.90;99.90;;;;;;5072418;28;20036;-76
2023/03/20 12:33:27;;;;;;;0.60;0.60;;;11.00;99.90;;;;;;5070505;28;20063;-75
2023/03/20 12:35:55;;;;;;;0.70;0.70;;;11.00;99.90;;;;;;5076110;28;20036;-76
2023/03/20 12:38:29;;;;;;;0.60;0.60;;;11.00;99.90;;;;;;5073335;28;20052;-75
2023/03/20 12:41:18;;;;;;;0.60;0.60;;;11.20;99.90;;;;;;5048711;28;20048;-74
2023/03/20 12:43:55;;;;;;;0.60;0.60;;;11.40;99.90;;;;;;5074696;28;20106;-75
2023/03/20 12:46:27;;;;;;;0.70;0.70;;;11.40;99.90;;;;;;5073106;28;20403;-75
2023/03/20 12:49:16;;;;;;;0.60;0.60;;;11.20;99.90;;;;;;5076763;28;20044;-77
2023/03/20 12:51:45;;;;;;;0.70;0.70;;;11.40;99.90;;;;;;5072784;28;20132;-76
2023/03/20 12:54:21;;;;;;;0.60;0.60;;;11.30;99.90;;;;;;5041726;28;20482;-77
2023/03/20 12:56:50;;;;;;;0.70;0.70;;;11.30;99.90;;;;;;5058788;28;20047;-76
2023/03/20 12:59:15;;;;;;;0.70;0.70;;;11.10;99.90;;;;;;5075841;28;20044;-76
2023/03/20 13:01:54;;;;;;;0.60;0.60;;;10.90;99.90;;;;;;5072950;28;20493;-75
2023/03/20 13:04:26;;;;;;;0.63;0.63;;;10.60;99.90;;;;;;5051398;28;20056;-75
2023/03/20 13:06:57;;;;;;;0.63;0.63;;;10.70;99.90;;;;;;5071734;28;20059;-76
2023/03/20 13:09:24;;;;;;;0.60;0.60;;;10.90;99.90;;;;;;5071641;28;20051;-75
2023/03/20 13:12:03;;;;;;;0.60;0.60;;;11.00;99.90;;;;;;5068067;28;20223;-75